sensor_id;sensor_type;location;lat;lon;timestamp;temperature;humidity
82126;DHT22;71668;51.400;6.758;2023-12-14T00:02:04;10.40;99.90
82126;DHT22;71668;51.400;6.758;2023-12-14T00:04:31;10.30;99.90
82126;DHT22;71668;51.400;6.758;2023-12-14T00:06:58;10.30;99.90
82126;DHT22;71668;51.400;6.758;2023-12-14T00:09:25;10.20;99.90
82126;DHT22;71668;51.400;6.758;2023-12-14T00:11:52;10.20;99.90
82126;DHT22;71668;51.400;6.758;2023-12-14T00:14:19;10.20;99.90
82126;DHT22;71668;51.400;6.758;2023-12-14T00:16:46;10.10;99.90
82126;DHT22;71668;51.400;6.758;2023-12-14T00:19:13;10.10;99.90
82126;DHT22;71668;51.400;6.758;2023-12-14T00:21:40;10.10;99.90
82126;DHT22;71668;51.400;6.758;2023-12-14T00:24:07;10.10;99.90
82126;DHT22;71668;51.400;6.758;2023-12-14T00:26:34;10.10;99.90
82126;DHT22;71668;51.400;6.758;2023-12-14T00:29:01;10.10;99.90
82126;DHT22;71668;51.400;6.758;2023-12-14T00:31:28;10.10;99.90
82126;DHT22;71668;51.400;6.758;2023-12-14T00:33:55;10.10;99.90
82126;DHT22;71668;51.400;6.758;2023-12-14T00:36:22;10.10;99.90
82126;DHT22;71668;51.400;6.758;2023-12-14T00:38:49;10.00;99.90
82126;DHT22;71668;51.400;6.758;2023-12-14T00:41:16;10.00;99.90
82126;DHT22;71668;51.400;6.758;2023-12-14T00:43:43;9.90;99.90
82126;DHT22;71668;51.400;6.758;2023-12-14T00:46:10;9.90;99.90
82126;DHT22;71668;51.400;6.758;2023-12-14T00:48:38;9.90;99.90
82126;DHT22;71668;51.400;6.758;2023-12-14T00:51:04;9.80;99.90
82126;DHT22;71668;51.400;6.758;2023-12-14T00:53:31;9.80;99.90
82126;DHT22;71668;51.400;6.758;2023-12-14T00:55:59;9.60;99.90
82126;DHT22;71668;51.400;6.758;2023-12-14T00:58:25;9.60;99.90
82126;DHT22;71668;51.400;6.758;2023-12-14T01:00:52;9.70;99.90
82126;DHT22;71668;51.400;6.758;2023-12-14T01:03:21;9.80;99.90
82126;DHT22;71668;51.400;6.758;2023-12-14T01:05:48;9.80;99.90
82126;DHT22;71668;51.400;6.758;2023-12-14T01:08:19;9.90;99.90
82126;DHT22;71668;51.400;6.758;2023-12-14T01:10:49;9.90;99.90
82126;DHT22;71668;51.400;6.758;2023-12-14T01:13:16;9.90;99.90
82126;DHT22;71668;51.400;6.758;2023-12-14T01:15:43;9.90;99.90
82126;DHT22;71668;51.400;6.758;2023-12-14T01:18:10;9.80;99.90
82126;DHT22;71668;51.400;6.758;2023-12-14T01:20:37;9.80;99.90
82126;DHT22;71668;51.400;6.758;2023-12-14T01:23:04;9.80;99.90
82126;DHT22;71668;51.400;6.758;2023-12-14T01:25:31;9.60;99.90
82126;DHT22;71668;51.400;6.758;2023-12-14T01:27:58;9.50;99.90
82126;DHT22;71668;51.400;6.758;2023-12-14T01:30:26;9.60;99.90
82126;DHT22;71668;51.400;6.758;2023-12-14T01:32:53;9.60;99.90
82126;DHT22;71668;51.400;6.758;2023-12-14T01:35:20;9.70;99.90
82126;DHT22;71668;51.400;6.758;2023-12-14T01:37:47;9.60;99.90
82126;DHT22;71668;51.400;6.758;2023-12-14T01:40:18;9.60;99.90
82126;DHT22;71668;51.400;6.758;2023-12-14T01:42:45;9.70;99.90
82126;DHT22;71668;51.400;6.758;2023-12-14T01:45:12;9.60;99.90
82126;DHT22;71668;51.400;6.758;2023-12-14T01:47:42;9.60;99.90
82126;DHT22;71668;51.400;6.758;2023-12-14T01:50:09;9.70;99.90
82126;DHT22;71668;51.400;6.758;2023-12-14T01:52:36;9.60;99.90
82126;DHT22;71668;51.400;6.758;2023-12-14T01:55:04;9.60;99.90
82126;DHT22;71668;51.400;6.758;2023-12-14T01:57:31;9.60;99.90
82126;DHT22;71668;51.400;6.758;2023-12-14T01:59:57;9.60;99.90
82126;DHT22;71668;51.400;6.758;2023-12-14T02:02:25;9.50;99.90
82126;DHT22;71668;51.400;6.758;2023-12-14T02:04:52;9.50;99.90
82126;DHT22;71668;51.400;6.758;2023-12-14T02:07:19;9.50;99.90
82126;DHT22;71668;51.400;6.758;2023-12-14T02:09:46;9.40;99.90
82126;DHT22;71668;51.400;6.758;2023-12-14T02:12:13;9.40;99.90
82126;DHT22;71668;51.400;6.758;2023-12-14T02:14:39;9.40;99.90
82126;DHT22;71668;51.400;6.758;2023-12-14T02:17:06;9.30;99.90
82126;DHT22;71668;51.400;6.758;2023-12-14T02:19:34;9.30;99.90
82126;DHT22;71668;51.400;6.758;2023-12-14T02:22:01;9.30;99.90
82126;DHT22;71668;51.400;6.758;2023-12-14T02:24:27;9.30;99.90
82126;DHT22;71668;51.400;6.758;2023-12-14T02:26:54;9.30;99.90
82126;DHT22;71668;51.400;6.758;2023-12-14T02:29:32;9.20;99.90
82126;DHT22;71668;51.400;6.758;2023-12-14T02:31:59;9.20;99.90
82126;DHT22;71668;51.400;6.758;2023-12-14T02:34:26;9.30;99.90
82126;DHT22;71668;51.400;6.758;2023-12-14T02:36:53;9.30;99.90
82126;DHT22;71668;51.400;6.758;2023-12-14T02:39:20;9.30;99.90
82126;DHT22;71668;51.400;6.758;2023-12-14T02:41:47;9.40;99.90
82126;DHT22;71668;51.400;6.758;2023-12-14T02:44:14;9.40;99.90
82126;DHT22;71668;51.400;6.758;2023-12-14T02:46:41;9.30;99.90
82126;DHT22;71668;51.400;6.758;2023-12-14T02:49:08;9.30;99.90
82126;DHT22;71668;51.400;6.758;2023-12-14T02:51:35;9.20;99.90
82126;DHT22;71668;51.400;6.758;2023-12-14T02:54:02;9.20;99.90
82126;DHT22;71668;51.400;6.758;2023-12-14T02:56:29;9.20;99.90
82126;DHT22;71668;51.400;6.758;2023-12-14T02:58:56;9.20;99.90
82126;DHT22;71668;51.400;6.758;2023-12-14T03:01:23;9.10;99.90
82126;DHT22;71668;51.400;6.758;2023-12-14T03:03:50;9.10;99.90
82126;DHT22;71668;51.400;6.758;2023-12-14T03:06:17;9.10;99.90
82126;DHT22;71668;51.400;6.758;2023-12-14T03:08:44;9.20;99.90
82126;DHT22;71668;51.400;6.758;2023-12-14T03:11:21;9.20;99.90
82126;DHT22;71668;51.400;6.758;2023-12-14T03:13:48;9.10;99.90
82126;DHT22;71668;51.400;6.758;2023-12-14T03:16:15;9.10;99.90
82126;DHT22;71668;51.400;6.758;2023-12-14T03:18:43;9.00;99.90
82126;DHT22;71668;51.400;6.758;2023-12-14T03:21:10;9.10;99.90
82126;DHT22;71668;51.400;6.758;2023-12-14T03:23:37;9.00;99.90
82126;DHT22;71668;51.400;6.758;2023-12-14T03:26:04;9.00;99.90
82126;DHT22;71668;51.400;6.758;2023-12-14T03:28:31;8.90;99.90
82126;DHT22;71668;51.400;6.758;2023-12-14T03:30:58;8.90;99.90
82126;DHT22;71668;51.400;6.758;2023-12-14T03:33:25;8.90;99.90
82126;DHT22;71668;51.400;6.758;2023-12-14T03:35:56;8.80;99.90
82126;DHT22;71668;51.400;6.758;2023-12-14T03:38:29;8.90;99.90
82126;DHT22;71668;51.400;6.758;2023-12-14T03:40:56;8.90;99.90
82126;DHT22;71668;51.400;6.758;2023-12-14T03:43:28;8.90;99.90
82126;DHT22;71668;51.400;6.758;2023-12-14T03:45:56;9.00;99.90
82126;DHT22;71668;51.400;6.758;2023-12-14T03:48:23;9.00;99.90
82126;DHT22;71668;51.400;6.758;2023-12-14T03:50:51;8.90;99.90
82126;DHT22;71668;51.400;6.758;2023-12-14T03:53:19;8.90;99.90
82126;DHT22;71668;51.400;6.758;2023-12-14T03:55:48;8.90;99.90
82126;DHT22;71668;51.400;6.758;2023-12-14T03:58:18;8.90;99.90
82126;DHT22;71668;51.400;6.758;2023-12-14T04:00:47;8.90;99.90
82126;DHT22;71668;51.400;6.758;2023-12-14T04:03:14;9.00;99.90
82126;DHT22;71668;51.400;6.758;2023-12-14T04:05:44;9.00;99.90
82126;DHT22;71668;51.400;6.758;2023-12-14T04:08:11;9.00;99.90
82126;DHT22;71668;51.400;6.758;2023-12-14T04:10:38;9.00;99.90
82126;DHT22;71668;51.400;6.758;2023-12-14T04:13:05;9.00;99.90
82126;DHT22;71668;51.400;6.758;2023-12-14T04:15:31;8.90;99.90
82126;DHT22;71668;51.400;6.758;2023-12-14T04:17:58;8.80;99.90
82126;DHT22;71668;51.400;6.758;2023-12-14T04:20:25;8.80;99.90
82126;DHT22;71668;51.400;6.758;2023-12-14T04:22:52;8.80;99.90
82126;DHT22;71668;51.400;6.758;2023-12-14T04:25:19;8.80;99.90
82126;DHT22;71668;51.400;6.758;2023-12-14T04:27:46;8.80;99.90
82126;DHT22;71668;51.400;6.758;2023-12-14T04:30:14;8.80;99.90
82126;DHT22;71668;51.400;6.758;2023-12-14T04:32:41;8.80;99.90
82126;DHT22;71668;51.400;6.758;2023-12-14T04:35:08;8.70;99.90
82126;DHT22;71668;51.400;6.758;2023-12-14T04:37:38;8.70;99.90
82126;DHT22;71668;51.400;6.758;2023-12-14T04:40:08;8.60;99.90
82126;DHT22;71668;51.400;6.758;2023-12-14T04:42:35;8.60;99.90
82126;DHT22;71668;51.400;6.758;2023-12-14T04:45:03;8.60;99.90
82126;DHT22;71668;51.400;6.758;2023-12-14T04:47:33;8.70;99.90
82126;DHT22;71668;51.400;6.758;2023-12-14T04:50:06;8.70;99.90
82126;DHT22;71668;51.400;6.758;2023-12-14T04:52:33;8.70;99.90
82126;DHT22;71668;51.400;6.758;2023-12-14T04:55:01;8.70;99.90
82126;DHT22;71668;51.400;6.758;2023-12-14T04:57:28;8.80;99.90
82126;DHT22;71668;51.400;6.758;2023-12-14T05:00:07;8.80;99.90
82126;DHT22;71668;51.400;6.758;2023-12-14T05:02:34;8.80;99.90
82126;DHT22;71668;51.400;6.758;2023-12-14T05:05:04;8.80;99.90
82126;DHT22;71668;51.400;6.758;2023-12-14T05:07:31;8.80;99.90
82126;DHT22;71668;51.400;6.758;2023-12-14T05:09:58;8.80;99.90
82126;DHT22;71668;51.400;6.758;2023-12-14T05:12:25;8.80;99.90
82126;DHT22;71668;51.400;6.758;2023-12-14T05:14:56;8.80;99.90
82126;DHT22;71668;51.400;6.758;2023-12-14T05:17:23;8.70;99.90
82126;DHT22;71668;51.400;6.758;2023-12-14T05:19:50;8.80;99.90
82126;DHT22;71668;51.400;6.758;2023-12-14T05:22:17;8.70;99.90
82126;DHT22;71668;51.400;6.758;2023-12-14T05:24:46;8.60;99.90
82126;DHT22;71668;51.400;6.758;2023-12-14T05:27:13;8.50;99.90
82126;DHT22;71668;51.400;6.758;2023-12-14T05:29:40;8.50;99.90
82126;DHT22;71668;51.400;6.758;2023-12-14T05:32:08;8.40;99.90
82126;DHT22;71668;51.400;6.758;2023-12-14T05:34:35;8.40;99.90
82126;DHT22;71668;51.400;6.758;2023-12-14T05:37:02;8.40;99.90
82126;DHT22;71668;51.400;6.758;2023-12-14T05:39:29;8.40;99.90
82126;DHT22;71668;51.400;6.758;2023-12-14T05:41:56;8.30;99.90
82126;DHT22;71668;51.400;6.758;2023-12-14T05:44:23;8.30;99.90
82126;DHT22;71668;51.400;6.758;2023-12-14T05:46:50;8.30;99.90
82126;DHT22;71668;51.400;6.758;2023-12-14T05:49:16;8.40;99.90
82126;DHT22;71668;51.400;6.758;2023-12-14T05:51:43;8.40;99.90
82126;DHT22;71668;51.400;6.758;2023-12-14T05:54:10;8.50;99.90
82126;DHT22;71668;51.400;6.758;2023-12-14T05:56:37;8.60;99.90
82126;DHT22;71668;51.400;6.758;2023-12-14T05:59:06;8.60;99.90
82126;DHT22;71668;51.400;6.758;2023-12-14T06:01:33;8.70;99.90
82126;DHT22;71668;51.400;6.758;2023-12-14T06:04:00;8.70;99.90
82126;DHT22;71668;51.400;6.758;2023-12-14T06:06:27;8.70;99.90
82126;DHT22;71668;51.400;6.758;2023-12-14T06:08:54;8.70;99.90
82126;DHT22;71668;51.400;6.758;2023-12-14T06:11:20;8.70;99.90
82126;DHT22;71668;51.400;6.758;2023-12-14T06:13:47;8.80;99.90
82126;DHT22;71668;51.400;6.758;2023-12-14T06:16:14;8.70;99.90
82126;DHT22;71668;51.400;6.758;2023-12-14T06:18:41;8.70;99.90
82126;DHT22;71668;51.400;6.758;2023-12-14T06:21:11;8.50;99.90
82126;DHT22;71668;51.400;6.758;2023-12-14T06:23:39;8.50;99.90
82126;DHT22;71668;51.400;6.758;2023-12-14T06:26:06;8.50;99.90
82126;DHT22;71668;51.400;6.758;2023-12-14T06:28:33;8.60;99.90
82126;DHT22;71668;51.400;6.758;2023-12-14T06:31:00;8.70;99.90
82126;DHT22;71668;51.400;6.758;2023-12-14T06:33:28;8.70;99.90
82126;DHT22;71668;51.400;6.758;2023-12-14T06:35:55;8.70;99.90
82126;DHT22;71668;51.400;6.758;2023-12-14T06:38:22;8.70;99.90
82126;DHT22;71668;51.400;6.758;2023-12-14T06:41:01;8.70;99.90
82126;DHT22;71668;51.400;6.758;2023-12-14T06:43:33;8.80;99.90
82126;DHT22;71668;51.400;6.758;2023-12-14T06:46:00;8.70;99.90
82126;DHT22;71668;51.400;6.758;2023-12-14T06:48:27;8.70;99.90
82126;DHT22;71668;51.400;6.758;2023-12-14T06:50:57;8.70;99.90
82126;DHT22;71668;51.400;6.758;2023-12-14T06:53:24;8.70;99.90
82126;DHT22;71668;51.400;6.758;2023-12-14T06:55:51;8.70;99.90
82126;DHT22;71668;51.400;6.758;2023-12-14T06:58:18;8.70;99.90
82126;DHT22;71668;51.400;6.758;2023-12-14T07:00:45;8.70;99.90
82126;DHT22;71668;51.400;6.758;2023-12-14T07:03:12;8.70;99.90
82126;DHT22;71668;51.400;6.758;2023-12-14T07:05:39;8.60;99.90
82126;DHT22;71668;51.400;6.758;2023-12-14T07:08:06;8.60;99.90
82126;DHT22;71668;51.400;6.758;2023-12-14T07:10:33;8.60;99.90
82126;DHT22;71668;51.400;6.758;2023-12-14T07:13:01;8.60;99.90
82126;DHT22;71668;51.400;6.758;2023-12-14T07:15:27;8.60;99.90
82126;DHT22;71668;51.400;6.758;2023-12-14T07:17:54;8.60;99.90
82126;DHT22;71668;51.400;6.758;2023-12-14T07:20:21;8.60;99.90
82126;DHT22;71668;51.400;6.758;2023-12-14T07:22:48;8.60;99.90
82126;DHT22;71668;51.400;6.758;2023-12-14T07:25:15;8.50;99.90
82126;DHT22;71668;51.400;6.758;2023-12-14T07:27:42;8.50;99.90
82126;DHT22;71668;51.400;6.758;2023-12-14T07:30:10;8.50;99.90
82126;DHT22;71668;51.400;6.758;2023-12-14T07:32:37;8.40;99.90
82126;DHT22;71668;51.400;6.758;2023-12-14T07:35:05;8.50;99.90
82126;DHT22;71668;51.400;6.758;2023-12-14T07:37:32;8.50;99.90
82126;DHT22;71668;51.400;6.758;2023-12-14T07:39:59;8.50;99.90
82126;DHT22;71668;51.400;6.758;2023-12-14T07:42:26;8.50;99.90
82126;DHT22;71668;51.400;6.758;2023-12-14T07:44:53;8.50;99.90
82126;DHT22;71668;51.400;6.758;2023-12-14T07:47:21;8.50;99.90
82126;DHT22;71668;51.400;6.758;2023-12-14T07:49:48;8.50;99.90
82126;DHT22;71668;51.400;6.758;2023-12-14T07:52:14;8.60;99.90
82126;DHT22;71668;51.400;6.758;2023-12-14T07:54:41;8.60;99.90
82126;DHT22;71668;51.400;6.758;2023-12-14T07:57:08;8.60;99.90
82126;DHT22;71668;51.400;6.758;2023-12-14T07:59:35;8.50;99.90
82126;DHT22;71668;51.400;6.758;2023-12-14T08:02:02;8.50;99.90
82126;DHT22;71668;51.400;6.758;2023-12-14T08:04:29;8.50;99.90
82126;DHT22;71668;51.400;6.758;2023-12-14T08:06:56;8.30;99.90
82126;DHT22;71668;51.400;6.758;2023-12-14T08:09:23;8.30;99.90
82126;DHT22;71668;51.400;6.758;2023-12-14T08:11:50;8.30;99.90
82126;DHT22;71668;51.400;6.758;2023-12-14T08:14:19;8.30;99.90
82126;DHT22;71668;51.400;6.758;2023-12-14T08:16:46;8.30;99.90
82126;DHT22;71668;51.400;6.758;2023-12-14T08:19:13;8.40;99.90
82126;DHT22;71668;51.400;6.758;2023-12-14T08:21:39;8.40;99.90
82126;DHT22;71668;51.400;6.758;2023-12-14T08:24:06;8.30;99.90
82126;DHT22;71668;51.400;6.758;2023-12-14T08:26:33;8.20;99.90
82126;DHT22;71668;51.400;6.758;2023-12-14T08:29:01;8.20;99.90
82126;DHT22;71668;51.400;6.758;2023-12-14T08:31:28;8.20;99.90
82126;DHT22;71668;51.400;6.758;2023-12-14T08:33:55;8.20;99.90
82126;DHT22;71668;51.400;6.758;2023-12-14T08:36:22;8.00;99.90
82126;DHT22;71668;51.400;6.758;2023-12-14T08:38:53;8.10;99.90
82126;DHT22;71668;51.400;6.758;2023-12-14T08:41:21;8.10;99.90
82126;DHT22;71668;51.400;6.758;2023-12-14T08:43:48;8.10;99.90
82126;DHT22;71668;51.400;6.758;2023-12-14T08:46:14;8.10;99.90
82126;DHT22;71668;51.400;6.758;2023-12-14T08:48:41;8.10;99.90
82126;DHT22;71668;51.400;6.758;2023-12-14T08:51:08;8.20;99.90
82126;DHT22;71668;51.400;6.758;2023-12-14T08:53:35;8.20;99.90
82126;DHT22;71668;51.400;6.758;2023-12-14T08:56:02;8.10;99.90
82126;DHT22;71668;51.400;6.758;2023-12-14T08:58:30;8.10;99.90
82126;DHT22;71668;51.400;6.758;2023-12-14T09:00:56;8.10;99.90
82126;DHT22;71668;51.400;6.758;2023-12-14T09:03:23;8.20;99.90
82126;DHT22;71668;51.400;6.758;2023-12-14T09:05:50;8.30;99.90
82126;DHT22;71668;51.400;6.758;2023-12-14T09:08:19;8.30;99.90
82126;DHT22;71668;51.400;6.758;2023-12-14T09:10:46;8.40;99.90
82126;DHT22;71668;51.400;6.758;2023-12-14T09:13:13;8.40;99.90
82126;DHT22;71668;51.400;6.758;2023-12-14T09:15:40;8.50;99.90
82126;DHT22;71668;51.400;6.758;2023-12-14T09:18:09;8.50;99.90
82126;DHT22;71668;51.400;6.758;2023-12-14T09:20:36;8.60;99.90
82126;DHT22;71668;51.400;6.758;2023-12-14T09:23:04;8.60;99.90
82126;DHT22;71668;51.400;6.758;2023-12-14T09:25:31;8.50;99.90
82126;DHT22;71668;51.400;6.758;2023-12-14T09:28:00;8.60;99.90
82126;DHT22;71668;51.400;6.758;2023-12-14T09:30:26;8.50;99.90
82126;DHT22;71668;51.400;6.758;2023-12-14T09:32:53;8.50;99.90
82126;DHT22;71668;51.400;6.758;2023-12-14T09:35:20;8.50;99.90
82126;DHT22;71668;51.400;6.758;2023-12-14T09:37:47;8.50;99.90
82126;DHT22;71668;51.400;6.758;2023-12-14T09:40:22;8.40;99.90
82126;DHT22;71668;51.400;6.758;2023-12-14T09:42:52;8.50;99.90
82126;DHT22;71668;51.400;6.758;2023-12-14T09:45:23;8.50;99.90
82126;DHT22;71668;51.400;6.758;2023-12-14T09:47:51;8.50;99.90
82126;DHT22;71668;51.400;6.758;2023-12-14T09:50:20;8.50;99.90
82126;DHT22;71668;51.400;6.758;2023-12-14T09:52:48;8.50;99.90
82126;DHT22;71668;51.400;6.758;2023-12-14T09:55:16;8.60;99.90
82126;DHT22;71668;51.400;6.758;2023-12-14T09:57:43;8.60;99.90
82126;DHT22;71668;51.400;6.758;2023-12-14T10:00:10;8.60;99.90
82126;DHT22;71668;51.400;6.758;2023-12-14T10:02:40;8.60;99.90
82126;DHT22;71668;51.400;6.758;2023-12-14T10:05:10;8.60;99.90
82126;DHT22;71668;51.400;6.758;2023-12-14T10:07:43;8.60;99.90
82126;DHT22;71668;51.400;6.758;2023-12-14T10:10:12;8.70;99.90
82126;DHT22;71668;51.400;6.758;2023-12-14T10:12:53;8.70;99.90
82126;DHT22;71668;51.400;6.758;2023-12-14T10:15:20;8.70;99.90
82126;DHT22;71668;51.400;6.758;2023-12-14T10:17:53;8.80;99.90
82126;DHT22;71668;51.400;6.758;2023-12-14T10:20:22;8.70;99.90
82126;DHT22;71668;51.400;6.758;2023-12-14T10:22:49;8.80;99.90
82126;DHT22;71668;51.400;6.758;2023-12-14T10:25:19;8.80;99.90
82126;DHT22;71668;51.400;6.758;2023-12-14T10:27:47;8.80;99.90
82126;DHT22;71668;51.400;6.758;2023-12-14T10:30:14;8.90;99.90
82126;DHT22;71668;51.400;6.758;2023-12-14T10:32:42;8.80;99.90
82126;DHT22;71668;51.400;6.758;2023-12-14T10:35:23;8.80;99.90
82126;DHT22;71668;51.400;6.758;2023-12-14T10:37:52;8.80;99.90
82126;DHT22;71668;51.400;6.758;2023-12-14T10:40:19;8.90;99.90
82126;DHT22;71668;51.400;6.758;2023-12-14T10:42:47;8.90;99.90
82126;DHT22;71668;51.400;6.758;2023-12-14T10:45:16;8.90;99.90
82126;DHT22;71668;51.400;6.758;2023-12-14T10:47:50;8.90;99.90
82126;DHT22;71668;51.400;6.758;2023-12-14T10:50:18;8.90;99.90
82126;DHT22;71668;51.400;6.758;2023-12-14T10:52:46;8.80;99.90
82126;DHT22;71668;51.400;6.758;2023-12-14T10:55:47;8.80;99.90
82126;DHT22;71668;51.400;6.758;2023-12-14T10:58:12;8.90;99.90
82126;DHT22;71668;51.400;6.758;2023-12-14T11:00:42;8.80;99.90
82126;DHT22;71668;51.400;6.758;2023-12-14T11:03:13;8.80;99.90
82126;DHT22;71668;51.400;6.758;2023-12-14T11:05:40;8.80;99.90
82126;DHT22;71668;51.400;6.758;2023-12-14T11:08:07;8.80;99.90
82126;DHT22;71668;51.400;6.758;2023-12-14T11:10:43;8.80;99.90
82126;DHT22;71668;51.400;6.758;2023-12-14T11:13:13;8.80;99.90
82126;DHT22;71668;51.400;6.758;2023-12-14T11:15:49;8.80;99.90
82126;DHT22;71668;51.400;6.758;2023-12-14T11:18:20;8.90;99.90
82126;DHT22;71668;51.400;6.758;2023-12-14T11:20:49;9.00;99.90
82126;DHT22;71668;51.400;6.758;2023-12-14T11:23:29;9.00;99.90
82126;DHT22;71668;51.400;6.758;2023-12-14T11:26:05;9.00;99.90
82126;DHT22;71668;51.400;6.758;2023-12-14T11:28:37;9.00;99.90
82126;DHT22;71668;51.400;6.758;2023-12-14T11:31:04;9.00;99.90
82126;DHT22;71668;51.400;6.758;2023-12-14T11:33:35;9.00;99.90
82126;DHT22;71668;51.400;6.758;2023-12-14T11:36:10;9.00;99.90
82126;DHT22;71668;51.400;6.758;2023-12-14T11:38:37;9.00;99.90
82126;DHT22;71668;51.400;6.758;2023-12-14T11:41:04;9.10;99.90
82126;DHT22;71668;51.400;6.758;2023-12-14T11:43:42;9.00;99.90
82126;DHT22;71668;51.400;6.758;2023-12-14T11:46:15;9.00;99.90
82126;DHT22;71668;51.400;6.758;2023-12-14T11:48:45;8.90;99.90
82126;DHT22;71668;51.400;6.758;2023-12-14T11:51:13;8.90;99.90
82126;DHT22;71668;51.400;6.758;2023-12-14T11:53:40;8.90;99.90
82126;DHT22;71668;51.400;6.758;2023-12-14T11:56:07;8.80;99.90
82126;DHT22;71668;51.400;6.758;2023-12-14T11:58:35;8.80;99.90
82126;DHT22;71668;51.400;6.758;2023-12-14T12:03:46;8.80;99.90
82126;DHT22;71668;51.400;6.758;2023-12-14T12:06:26;8.80;99.90
82126;DHT22;71668;51.400;6.758;2023-12-14T12:08:57;8.80;99.90
82126;DHT22;71668;51.400;6.758;2023-12-14T12:11:25;8.70;99.90
82126;DHT22;71668;51.400;6.758;2023-12-14T12:13:55;8.70;99.90
82126;DHT22;71668;51.400;6.758;2023-12-14T12:16:23;8.60;99.90
82126;DHT22;71668;51.400;6.758;2023-12-14T12:18:50;8.60;99.90
82126;DHT22;71668;51.400;6.758;2023-12-14T12:21:18;8.60;99.90
82126;DHT22;71668;51.400;6.758;2023-12-14T12:23:45;8.60;99.90
82126;DHT22;71668;51.400;6.758;2023-12-14T12:26:12;8.70;99.90
82126;DHT22;71668;51.400;6.758;2023-12-14T12:28:39;8.70;99.90
82126;DHT22;71668;51.400;6.758;2023-12-14T12:31:06;8.70;99.90
82126;DHT22;71668;51.400;6.758;2023-12-14T12:33:33;8.60;99.90
82126;DHT22;71668;51.400;6.758;2023-12-14T12:36:04;8.60;99.90
82126;DHT22;71668;51.400;6.758;2023-12-14T12:38:32;8.50;99.90
82126;DHT22;71668;51.400;6.758;2023-12-14T12:40:59;8.50;99.90
82126;DHT22;71668;51.400;6.758;2023-12-14T12:43:27;8.60;99.90
82126;DHT22;71668;51.400;6.758;2023-12-14T12:45:54;8.60;99.90
82126;DHT22;71668;51.400;6.758;2023-12-14T12:48:21;8.60;99.90
82126;DHT22;71668;51.400;6.758;2023-12-14T12:50:53;8.70;99.90
82126;DHT22;71668;51.400;6.758;2023-12-14T12:53:19;8.70;99.90
82126;DHT22;71668;51.400;6.758;2023-12-14T12:55:46;8.80;99.90
82126;DHT22;71668;51.400;6.758;2023-12-14T12:58:13;8.80;99.90
82126;DHT22;71668;51.400;6.758;2023-12-14T13:00:41;8.90;99.90
82126;DHT22;71668;51.400;6.758;2023-12-14T13:03:08;8.90;99.90
82126;DHT22;71668;51.400;6.758;2023-12-14T13:05:35;9.00;99.90
82126;DHT22;71668;51.400;6.758;2023-12-14T13:08:02;9.00;99.90
82126;DHT22;71668;51.400;6.758;2023-12-14T13:10:28;9.00;99.90
82126;DHT22;71668;51.400;6.758;2023-12-14T13:12:59;9.00;99.90
82126;DHT22;71668;51.400;6.758;2023-12-14T13:15:27;9.00;99.90
82126;DHT22;71668;51.400;6.758;2023-12-14T13:17:57;9.00;99.90
82126;DHT22;71668;51.400;6.758;2023-12-14T13:20:24;8.90;99.90
82126;DHT22;71668;51.400;6.758;2023-12-14T13:22:53;8.90;99.90
82126;DHT22;71668;51.400;6.758;2023-12-14T13:25:20;8.90;99.90
82126;DHT22;71668;51.400;6.758;2023-12-14T13:27:50;8.80;99.90
82126;DHT22;71668;51.400;6.758;2023-12-14T13:30:16;8.80;99.90
82126;DHT22;71668;51.400;6.758;2023-12-14T13:32:45;8.80;99.90
82126;DHT22;71668;51.400;6.758;2023-12-14T13:35:12;8.80;99.90
82126;DHT22;71668;51.400;6.758;2023-12-14T13:37:39;8.70;99.90
82126;DHT22;71668;51.400;6.758;2023-12-14T13:40:07;8.60;99.90
82126;DHT22;71668;51.400;6.758;2023-12-14T13:42:36;8.60;99.90
82126;DHT22;71668;51.400;6.758;2023-12-14T13:45:16;8.60;99.90
82126;DHT22;71668;51.400;6.758;2023-12-14T13:47:43;8.50;99.90
82126;DHT22;71668;51.400;6.758;2023-12-14T13:50:10;8.50;99.90
82126;DHT22;71668;51.400;6.758;2023-12-14T13:52:37;8.50;99.90
82126;DHT22;71668;51.400;6.758;2023-12-14T13:55:05;8.50;99.90
82126;DHT22;71668;51.400;6.758;2023-12-14T13:57:32;8.40;99.90
82126;DHT22;71668;51.400;6.758;2023-12-14T14:00:00;8.40;99.90
82126;DHT22;71668;51.400;6.758;2023-12-14T14:02:27;8.40;99.90
82126;DHT22;71668;51.400;6.758;2023-12-14T14:04:55;8.40;99.90
82126;DHT22;71668;51.400;6.758;2023-12-14T14:07:22;8.30;99.90
82126;DHT22;71668;51.400;6.758;2023-12-14T14:09:49;8.30;99.90
82126;DHT22;71668;51.400;6.758;2023-12-14T14:12:15;8.30;99.90
82126;DHT22;71668;51.400;6.758;2023-12-14T14:14:42;8.30;99.90
82126;DHT22;71668;51.400;6.758;2023-12-14T14:17:10;8.30;99.90
82126;DHT22;71668;51.400;6.758;2023-12-14T14:19:37;8.30;99.90
82126;DHT22;71668;51.400;6.758;2023-12-14T14:22:04;8.30;99.90
82126;DHT22;71668;51.400;6.758;2023-12-14T14:24:31;8.20;99.90
82126;DHT22;71668;51.400;6.758;2023-12-14T14:26:58;8.20;99.90
82126;DHT22;71668;51.400;6.758;2023-12-14T14:29:25;8.20;99.90
82126;DHT22;71668;51.400;6.758;2023-12-14T14:31:53;8.20;99.90
82126;DHT22;71668;51.400;6.758;2023-12-14T14:34:20;8.20;99.90
82126;DHT22;71668;51.400;6.758;2023-12-14T14:36:51;8.20;99.90
82126;DHT22;71668;51.400;6.758;2023-12-14T14:39:18;8.20;99.90
82126;DHT22;71668;51.400;6.758;2023-12-14T14:41:45;8.20;99.90
82126;DHT22;71668;51.400;6.758;2023-12-14T14:44:12;8.20;99.90
82126;DHT22;71668;51.400;6.758;2023-12-14T14:46:45;8.20;99.90
82126;DHT22;71668;51.400;6.758;2023-12-14T14:49:13;8.20;99.90
82126;DHT22;71668;51.400;6.758;2023-12-14T14:51:41;8.10;99.90
82126;DHT22;71668;51.400;6.758;2023-12-14T14:54:11;8.20;99.90
82126;DHT22;71668;51.400;6.758;2023-12-14T14:56:38;8.20;99.90
82126;DHT22;71668;51.400;6.758;2023-12-14T14:59:06;8.10;99.90
82126;DHT22;71668;51.400;6.758;2023-12-14T15:01:37;8.10;99.90
82126;DHT22;71668;51.400;6.758;2023-12-14T15:04:04;8.10;99.90
82126;DHT22;71668;51.400;6.758;2023-12-14T15:06:31;8.10;99.90
82126;DHT22;71668;51.400;6.758;2023-12-14T15:09:00;8.10;99.90
82126;DHT22;71668;51.400;6.758;2023-12-14T15:11:27;8.10;99.90
82126;DHT22;71668;51.400;6.758;2023-12-14T15:13:54;8.00;99.90
82126;DHT22;71668;51.400;6.758;2023-12-14T15:16:24;8.00;99.90
82126;DHT22;71668;51.400;6.758;2023-12-14T15:18:54;8.00;99.90
82126;DHT22;71668;51.400;6.758;2023-12-14T15:21:28;8.00;99.90
82126;DHT22;71668;51.400;6.758;2023-12-14T15:24:07;8.10;99.90
82126;DHT22;71668;51.400;6.758;2023-12-14T15:26:34;8.10;99.90
82126;DHT22;71668;51.400;6.758;2023-12-14T15:29:02;8.10;99.90
82126;DHT22;71668;51.400;6.758;2023-12-14T15:31:32;8.10;99.90
82126;DHT22;71668;51.400;6.758;2023-12-14T15:33:59;8.10;99.90
82126;DHT22;71668;51.400;6.758;2023-12-14T15:36:28;8.10;99.90
82126;DHT22;71668;51.400;6.758;2023-12-14T15:38:56;8.10;99.90
82126;DHT22;71668;51.400;6.758;2023-12-14T15:41:29;8.10;99.90
82126;DHT22;71668;51.400;6.758;2023-12-14T15:43:59;8.10;99.90
82126;DHT22;71668;51.400;6.758;2023-12-14T15:46:26;8.10;99.90
82126;DHT22;71668;51.400;6.758;2023-12-14T15:48:54;8.10;99.90
82126;DHT22;71668;51.400;6.758;2023-12-14T15:51:21;8.10;99.90
82126;DHT22;71668;51.400;6.758;2023-12-14T15:53:48;8.10;99.90